sensor_id;sensor_type;location;lat;lon;timestamp;P1;durP1;ratioP1;P2;durP2;ratioP2
3081;SDS011;1551;51.046;7.010;2023-04-03T00:01:03;6.05;;;5.05;;
3081;SDS011;1551;51.046;7.010;2023-04-03T00:03:52;4.80;;;4.25;;
3081;SDS011;1551;51.046;7.010;2023-04-03T00:06:41;7.57;;;5.30;;
3081;SDS011;1551;51.046;7.010;2023-04-03T00:09:30;5.30;;;4.47;;
3081;SDS011;1551;51.046;7.010;2023-04-03T00:12:19;5.55;;;4.30;;
3081;SDS011;1551;51.046;7.010;2023-04-03T00:15:08;6.13;;;4.60;;
3081;SDS011;1551;51.046;7.010;2023-04-03T00:17:58;5.00;;;4.10;;
3081;SDS011;1551;51.046;7.010;2023-04-03T00:20:47;6.07;;;4.85;;
3081;SDS011;1551;51.046;7.010;2023-04-03T00:23:35;4.70;;;4.00;;
3081;SDS011;1551;51.046;7.010;2023-04-03T00:26:25;6.70;;;4.78;;
3081;SDS011;1551;51.046;7.010;2023-04-03T00:29:13;6.03;;;4.43;;
3081;SDS011;1551;51.046;7.010;2023-04-03T00:32:03;5.80;;;4.55;;
3081;SDS011;1551;51.046;7.010;2023-04-03T00:34:52;6.13;;;4.72;;
3081;SDS011;1551;51.046;7.010;2023-04-03T00:37:41;6.22;;;5.20;;
3081;SDS011;1551;51.046;7.010;2023-04-03T00:40:38;6.45;;;4.50;;
3081;SDS011;1551;51.046;7.010;2023-04-03T00:43:30;5.22;;;4.63;;
3081;SDS011;1551;51.046;7.010;2023-04-03T00:46:19;7.30;;;5.25;;
3081;SDS011;1551;51.046;7.010;2023-04-03T00:49:09;5.05;;;4.15;;
3081;SDS011;1551;51.046;7.010;2023-04-03T00:51:58;5.70;;;4.70;;
3081;SDS011;1551;51.046;7.010;2023-04-03T00:54:48;5.60;;;4.20;;
3081;SDS011;1551;51.046;7.010;2023-04-03T00:57:42;7.30;;;4.50;;
3081;SDS011;1551;51.046;7.010;2023-04-03T01:00:31;9.13;;;4.80;;
3081;SDS011;1551;51.046;7.010;2023-04-03T01:03:20;7.05;;;5.07;;
3081;SDS011;1551;51.046;7.010;2023-04-03T01:06:09;7.50;;;4.80;;
3081;SDS011;1551;51.046;7.010;2023-04-03T01:08:59;6.90;;;4.90;;
3081;SDS011;1551;51.046;7.010;2023-04-03T01:11:48;7.20;;;4.50;;
3081;SDS011;1551;51.046;7.010;2023-04-03T01:14:38;9.27;;;4.72;;
3081;SDS011;1551;51.046;7.010;2023-04-03T01:17:38;5.53;;;4.80;;
3081;SDS011;1551;51.046;7.010;2023-04-03T01:23:37;6.50;;;4.88;;
3081;SDS011;1551;51.046;7.010;2023-04-03T01:26:28;6.07;;;4.30;;
3081;SDS011;1551;51.046;7.010;2023-04-03T01:29:18;6.40;;;4.30;;
3081;SDS011;1551;51.046;7.010;2023-04-03T01:32:07;7.85;;;4.80;;
3081;SDS011;1551;51.046;7.010;2023-04-03T01:34:57;5.70;;;4.17;;
3081;SDS011;1551;51.046;7.010;2023-04-03T01:37:46;4.50;;;4.03;;
3081;SDS011;1551;51.046;7.010;2023-04-03T01:40:35;4.95;;;4.25;;
3081;SDS011;1551;51.046;7.010;2023-04-03T01:43:26;5.68;;;3.80;;
3081;SDS011;1551;51.046;7.010;2023-04-03T01:46:18;7.70;;;4.90;;
3081;SDS011;1551;51.046;7.010;2023-04-03T01:49:09;5.30;;;4.25;;
3081;SDS011;1551;51.046;7.010;2023-04-03T01:51:58;5.93;;;4.50;;
3081;SDS011;1551;51.046;7.010;2023-04-03T01:54:47;6.68;;;4.32;;
3081;SDS011;1551;51.046;7.010;2023-04-03T01:57:36;6.47;;;4.60;;
3081;SDS011;1551;51.046;7.010;2023-04-03T02:00:25;7.10;;;4.60;;
3081;SDS011;1551;51.046;7.010;2023-04-03T02:03:15;5.10;;;4.22;;
3081;SDS011;1551;51.046;7.010;2023-04-03T02:06:04;4.90;;;4.00;;
3081;SDS011;1551;51.046;7.010;2023-04-03T02:08:54;4.60;;;4.00;;
3081;SDS011;1551;51.046;7.010;2023-04-03T02:11:43;5.47;;;3.92;;
3081;SDS011;1551;51.046;7.010;2023-04-03T02:14:33;5.37;;;3.73;;
3081;SDS011;1551;51.046;7.010;2023-04-03T02:17:22;5.90;;;4.40;;
3081;SDS011;1551;51.046;7.010;2023-04-03T02:20:11;5.20;;;3.80;;
3081;SDS011;1551;51.046;7.010;2023-04-03T02:23:00;5.30;;;3.60;;
3081;SDS011;1551;51.046;7.010;2023-04-03T02:25:49;7.28;;;3.90;;
3081;SDS011;1551;51.046;7.010;2023-04-03T02:28:39;4.40;;;3.10;;
3081;SDS011;1551;51.046;7.010;2023-04-03T02:31:28;5.53;;;3.90;;
3081;SDS011;1551;51.046;7.010;2023-04-03T02:34:17;4.55;;;3.72;;
3081;SDS011;1551;51.046;7.010;2023-04-03T02:37:08;5.67;;;3.90;;
3081;SDS011;1551;51.046;7.010;2023-04-03T02:39:57;5.60;;;3.22;;
3081;SDS011;1551;51.046;7.010;2023-04-03T02:42:46;4.43;;;3.50;;
3081;SDS011;1551;51.046;7.010;2023-04-03T02:45:35;4.90;;;3.60;;
3081;SDS011;1551;51.046;7.010;2023-04-03T02:48:25;5.13;;;3.33;;
3081;SDS011;1551;51.046;7.010;2023-04-03T02:51:16;5.00;;;3.37;;
3081;SDS011;1551;51.046;7.010;2023-04-03T02:54:05;6.38;;;4.47;;
3081;SDS011;1551;51.046;7.010;2023-04-03T02:56:57;5.68;;;3.40;;
3081;SDS011;1551;51.046;7.010;2023-04-03T02:59:46;4.63;;;3.20;;
3081;SDS011;1551;51.046;7.010;2023-04-03T03:02:36;5.55;;;3.20;;
3081;SDS011;1551;51.046;7.010;2023-04-03T03:05:25;5.90;;;3.63;;
3081;SDS011;1551;51.046;7.010;2023-04-03T03:08:14;5.90;;;3.00;;
3081;SDS011;1551;51.046;7.010;2023-04-03T03:11:04;3.53;;;2.60;;
3081;SDS011;1551;51.046;7.010;2023-04-03T03:13:54;6.07;;;3.60;;
3081;SDS011;1551;51.046;7.010;2023-04-03T03:16:43;4.63;;;2.72;;
3081;SDS011;1551;51.046;7.010;2023-04-03T03:19:33;4.68;;;2.88;;
3081;SDS011;1551;51.046;7.010;2023-04-03T03:22:23;4.53;;;2.60;;
3081;SDS011;1551;51.046;7.010;2023-04-03T03:25:12;7.03;;;2.63;;
3081;SDS011;1551;51.046;7.010;2023-04-03T03:28:01;5.10;;;2.67;;
3081;SDS011;1551;51.046;7.010;2023-04-03T03:30:50;4.35;;;2.38;;
3081;SDS011;1551;51.046;7.010;2023-04-03T03:33:40;4.80;;;2.45;;
3081;SDS011;1551;51.046;7.010;2023-04-03T03:36:30;4.97;;;2.90;;
3081;SDS011;1551;51.046;7.010;2023-04-03T03:39:20;5.22;;;2.40;;
3081;SDS011;1551;51.046;7.010;2023-04-03T03:42:09;3.85;;;2.63;;
3081;SDS011;1551;51.046;7.010;2023-04-03T03:44:58;6.70;;;2.50;;
3081;SDS011;1551;51.046;7.010;2023-04-03T03:47:48;3.78;;;2.50;;
3081;SDS011;1551;51.046;7.010;2023-04-03T03:50:38;5.65;;;2.58;;
3081;SDS011;1551;51.046;7.010;2023-04-03T03:53:27;4.55;;;2.50;;
3081;SDS011;1551;51.046;7.010;2023-04-03T03:56:20;6.30;;;2.40;;
3081;SDS011;1551;51.046;7.010;2023-04-03T03:59:11;3.88;;;2.67;;
3081;SDS011;1551;51.046;7.010;2023-04-03T04:02:00;3.70;;;2.00;;
3081;SDS011;1551;51.046;7.010;2023-04-03T04:04:50;5.33;;;2.57;;
3081;SDS011;1551;51.046;7.010;2023-04-03T04:07:39;5.50;;;2.15;;
3081;SDS011;1551;51.046;7.010;2023-04-03T04:10:28;5.30;;;2.23;;
3081;SDS011;1551;51.046;7.010;2023-04-03T04:13:19;5.50;;;2.50;;
3081;SDS011;1551;51.046;7.010;2023-04-03T04:16:09;4.22;;;2.22;;
3081;SDS011;1551;51.046;7.010;2023-04-03T04:18:59;5.28;;;2.38;;
3081;SDS011;1551;51.046;7.010;2023-04-03T04:21:47;4.87;;;2.63;;
3081;SDS011;1551;51.046;7.010;2023-04-03T04:24:37;3.10;;;1.77;;
3081;SDS011;1551;51.046;7.010;2023-04-03T04:27:26;4.53;;;2.13;;
3081;SDS011;1551;51.046;7.010;2023-04-03T04:30:15;3.53;;;2.27;;
3081;SDS011;1551;51.046;7.010;2023-04-03T04:33:06;4.38;;;2.20;;
3081;SDS011;1551;51.046;7.010;2023-04-03T04:35:56;4.60;;;2.00;;
3081;SDS011;1551;51.046;7.010;2023-04-03T04:38:46;5.45;;;2.40;;
3081;SDS011;1551;51.046;7.010;2023-04-03T04:41:35;4.53;;;2.40;;
3081;SDS011;1551;51.046;7.010;2023-04-03T04:44:26;3.50;;;2.13;;
3081;SDS011;1551;51.046;7.010;2023-04-03T04:47:14;5.18;;;2.20;;
3081;SDS011;1551;51.046;7.010;2023-04-03T04:50:05;6.65;;;2.72;;
3081;SDS011;1551;51.046;7.010;2023-04-03T04:52:55;4.93;;;2.97;;
3081;SDS011;1551;51.046;7.010;2023-04-03T04:55:44;4.40;;;2.20;;
3081;SDS011;1551;51.046;7.010;2023-04-03T04:58:33;4.53;;;2.28;;
3081;SDS011;1551;51.046;7.010;2023-04-03T05:01:24;4.40;;;2.10;;
3081;SDS011;1551;51.046;7.010;2023-04-03T05:04:27;3.90;;;1.87;;
3081;SDS011;1551;51.046;7.010;2023-04-03T05:07:23;5.60;;;2.10;;
3081;SDS011;1551;51.046;7.010;2023-04-03T05:10:13;3.70;;;1.83;;
3081;SDS011;1551;51.046;7.010;2023-04-03T05:13:02;5.00;;;2.55;;
3081;SDS011;1551;51.046;7.010;2023-04-03T05:15:51;6.13;;;2.20;;
3081;SDS011;1551;51.046;7.010;2023-04-03T05:18:40;4.00;;;2.20;;
3081;SDS011;1551;51.046;7.010;2023-04-03T05:21:33;4.10;;;2.20;;
3081;SDS011;1551;51.046;7.010;2023-04-03T05:24:26;5.80;;;2.10;;
3081;SDS011;1551;51.046;7.010;2023-04-03T05:27:15;5.80;;;2.60;;
3081;SDS011;1551;51.046;7.010;2023-04-03T05:30:09;5.68;;;2.58;;
3081;SDS011;1551;51.046;7.010;2023-04-03T05:33:02;5.80;;;2.70;;
3081;SDS011;1551;51.046;7.010;2023-04-03T05:36:03;9.05;;;4.72;;
3081;SDS011;1551;51.046;7.010;2023-04-03T05:38:53;6.00;;;2.88;;
3081;SDS011;1551;51.046;7.010;2023-04-03T05:41:44;5.90;;;3.83;;
3081;SDS011;1551;51.046;7.010;2023-04-03T05:44:34;3.83;;;2.42;;
3081;SDS011;1551;51.046;7.010;2023-04-03T05:47:24;4.00;;;2.17;;
3081;SDS011;1551;51.046;7.010;2023-04-03T05:50:14;4.68;;;2.42;;
3081;SDS011;1551;51.046;7.010;2023-04-03T05:53:03;6.43;;;2.80;;
3081;SDS011;1551;51.046;7.010;2023-04-03T05:55:55;4.57;;;2.50;;
3081;SDS011;1551;51.046;7.010;2023-04-03T05:58:44;4.70;;;2.00;;
3081;SDS011;1551;51.046;7.010;2023-04-03T06:01:33;6.22;;;2.20;;
3081;SDS011;1551;51.046;7.010;2023-04-03T06:04:23;6.40;;;3.03;;
3081;SDS011;1551;51.046;7.010;2023-04-03T06:07:13;5.22;;;2.30;;
3081;SDS011;1551;51.046;7.010;2023-04-03T06:10:04;5.28;;;2.70;;
3081;SDS011;1551;51.046;7.010;2023-04-03T06:12:54;4.78;;;2.40;;
3081;SDS011;1551;51.046;7.010;2023-04-03T06:15:43;5.25;;;2.20;;
3081;SDS011;1551;51.046;7.010;2023-04-03T06:18:32;4.82;;;2.10;;
3081;SDS011;1551;51.046;7.010;2023-04-03T06:21:21;3.35;;;2.03;;
3081;SDS011;1551;51.046;7.010;2023-04-03T06:24:12;9.97;;;2.47;;
3081;SDS011;1551;51.046;7.010;2023-04-03T06:27:03;4.80;;;2.40;;
3081;SDS011;1551;51.046;7.010;2023-04-03T06:29:53;5.00;;;2.30;;
3081;SDS011;1551;51.046;7.010;2023-04-03T06:32:41;3.88;;;2.13;;
3081;SDS011;1551;51.046;7.010;2023-04-03T06:35:31;4.20;;;2.20;;
3081;SDS011;1551;51.046;7.010;2023-04-03T06:38:20;5.97;;;2.78;;
3081;SDS011;1551;51.046;7.010;2023-04-03T06:41:09;3.93;;;2.40;;
3081;SDS011;1551;51.046;7.010;2023-04-03T06:43:58;6.05;;;2.53;;
3081;SDS011;1551;51.046;7.010;2023-04-03T06:46:47;4.28;;;2.05;;
3081;SDS011;1551;51.046;7.010;2023-04-03T06:49:36;5.38;;;2.13;;
3081;SDS011;1551;51.046;7.010;2023-04-03T06:52:25;4.78;;;2.03;;
3081;SDS011;1551;51.046;7.010;2023-04-03T06:55:15;5.15;;;2.00;;
3081;SDS011;1551;51.046;7.010;2023-04-03T06:58:04;4.05;;;1.77;;
3081;SDS011;1551;51.046;7.010;2023-04-03T07:00:53;5.43;;;2.30;;
3081;SDS011;1551;51.046;7.010;2023-04-03T07:03:42;6.03;;;2.30;;
3081;SDS011;1551;51.046;7.010;2023-04-03T07:06:32;5.22;;;2.15;;
3081;SDS011;1551;51.046;7.010;2023-04-03T07:09:22;4.80;;;2.42;;
3081;SDS011;1551;51.046;7.010;2023-04-03T07:12:11;6.25;;;1.75;;
3081;SDS011;1551;51.046;7.010;2023-04-03T07:14:59;5.38;;;1.98;;
3081;SDS011;1551;51.046;7.010;2023-04-03T07:17:48;6.57;;;1.73;;
3081;SDS011;1551;51.046;7.010;2023-04-03T07:20:38;5.38;;;1.80;;
3081;SDS011;1551;51.046;7.010;2023-04-03T07:23:27;4.38;;;2.30;;
3081;SDS011;1551;51.046;7.010;2023-04-03T07:26:16;5.88;;;2.20;;
3081;SDS011;1551;51.046;7.010;2023-04-03T07:29:06;4.28;;;1.83;;
3081;SDS011;1551;51.046;7.010;2023-04-03T07:31:55;5.78;;;2.03;;
3081;SDS011;1551;51.046;7.010;2023-04-03T07:34:44;4.88;;;2.20;;
3081;SDS011;1551;51.046;7.010;2023-04-03T07:37:33;3.22;;;1.33;;
3081;SDS011;1551;51.046;7.010;2023-04-03T07:40:22;3.85;;;1.60;;
3081;SDS011;1551;51.046;7.010;2023-04-03T07:43:11;5.10;;;1.60;;
3081;SDS011;1551;51.046;7.010;2023-04-03T07:46:00;3.50;;;1.40;;
3081;SDS011;1551;51.046;7.010;2023-04-03T07:48:49;4.20;;;1.60;;
3081;SDS011;1551;51.046;7.010;2023-04-03T07:51:38;3.80;;;1.75;;
3081;SDS011;1551;51.046;7.010;2023-04-03T07:54:28;5.05;;;2.00;;
3081;SDS011;1551;51.046;7.010;2023-04-03T07:57:17;3.65;;;1.80;;
3081;SDS011;1551;51.046;7.010;2023-04-03T08:00:06;3.40;;;1.60;;
3081;SDS011;1551;51.046;7.010;2023-04-03T08:03:05;4.97;;;1.83;;
3081;SDS011;1551;51.046;7.010;2023-04-03T08:05:54;3.72;;;1.40;;
3081;SDS011;1551;51.046;7.010;2023-04-03T08:08:43;4.90;;;1.52;;
3081;SDS011;1551;51.046;7.010;2023-04-03T08:11:32;4.03;;;1.52;;
3081;SDS011;1551;51.046;7.010;2023-04-03T08:14:21;4.63;;;1.60;;
3081;SDS011;1551;51.046;7.010;2023-04-03T08:17:10;4.90;;;1.73;;
3081;SDS011;1551;51.046;7.010;2023-04-03T08:20:04;4.53;;;1.90;;
3081;SDS011;1551;51.046;7.010;2023-04-03T08:22:54;4.15;;;1.23;;
3081;SDS011;1551;51.046;7.010;2023-04-03T08:25:43;2.92;;;1.30;;
3081;SDS011;1551;51.046;7.010;2023-04-03T08:28:33;3.90;;;1.70;;
3081;SDS011;1551;51.046;7.010;2023-04-03T08:31:23;3.70;;;1.52;;
3081;SDS011;1551;51.046;7.010;2023-04-03T08:34:12;3.65;;;1.60;;
3081;SDS011;1551;51.046;7.010;2023-04-03T08:37:03;3.28;;;1.38;;
3081;SDS011;1551;51.046;7.010;2023-04-03T08:39:52;3.08;;;1.70;;
3081;SDS011;1551;51.046;7.010;2023-04-03T08:45:51;3.58;;;1.30;;
3081;SDS011;1551;51.046;7.010;2023-04-03T08:48:44;3.33;;;1.40;;
3081;SDS011;1551;51.046;7.010;2023-04-03T08:51:33;4.20;;;1.70;;
3081;SDS011;1551;51.046;7.010;2023-04-03T08:57:28;3.80;;;1.45;;
3081;SDS011;1551;51.046;7.010;2023-04-03T09:00:20;3.40;;;1.50;;
3081;SDS011;1551;51.046;7.010;2023-04-03T09:03:12;3.20;;;1.10;;
3081;SDS011;1551;51.046;7.010;2023-04-03T09:06:10;4.03;;;1.40;;
3081;SDS011;1551;51.046;7.010;2023-04-03T09:09:13;4.72;;;1.52;;
3081;SDS011;1551;51.046;7.010;2023-04-03T09:15:23;3.83;;;1.70;;
3081;SDS011;1551;51.046;7.010;2023-04-03T09:21:08;3.00;;;1.40;;
3081;SDS011;1551;51.046;7.010;2023-04-03T09:24:06;2.83;;;1.30;;
3081;SDS011;1551;51.046;7.010;2023-04-03T09:26:58;3.13;;;1.10;;
3081;SDS011;1551;51.046;7.010;2023-04-03T09:29:55;2.92;;;1.05;;
3081;SDS011;1551;51.046;7.010;2023-04-03T09:32:46;4.40;;;1.17;;
3081;SDS011;1551;51.046;7.010;2023-04-03T09:35:37;3.30;;;1.10;;
3081;SDS011;1551;51.046;7.010;2023-04-03T09:38:29;2.72;;;1.20;;
3081;SDS011;1551;51.046;7.010;2023-04-03T09:41:17;2.85;;;1.10;;
3081;SDS011;1551;51.046;7.010;2023-04-03T09:44:21;3.30;;;1.20;;
3081;SDS011;1551;51.046;7.010;2023-04-03T09:53:25;2.75;;;1.40;;
3081;SDS011;1551;51.046;7.010;2023-04-03T09:56:23;2.42;;;1.27;;
3081;SDS011;1551;51.046;7.010;2023-04-03T09:59:15;4.32;;;1.20;;
3081;SDS011;1551;51.046;7.010;2023-04-03T10:02:22;3.90;;;1.30;;
3081;SDS011;1551;51.046;7.010;2023-04-03T10:05:36;3.58;;;1.80;;
3081;SDS011;1551;51.046;7.010;2023-04-03T10:08:29;2.65;;;1.25;;
3081;SDS011;1551;51.046;7.010;2023-04-03T10:11:20;3.15;;;1.10;;
3081;SDS011;1551;51.046;7.010;2023-04-03T10:14:15;2.90;;;1.10;;
3081;SDS011;1551;51.046;7.010;2023-04-03T10:20:18;3.60;;;1.40;;
3081;SDS011;1551;51.046;7.010;2023-04-03T10:23:30;3.40;;;1.40;;
3081;SDS011;1551;51.046;7.010;2023-04-03T10:26:45;2.60;;;1.40;;
3081;SDS011;1551;51.046;7.010;2023-04-03T10:33:28;3.53;;;1.30;;
3081;SDS011;1551;51.046;7.010;2023-04-03T10:40:05;2.92;;;0.90;;
3081;SDS011;1551;51.046;7.010;2023-04-03T10:46:35;5.10;;;1.30;;
3081;SDS011;1551;51.046;7.010;2023-04-03T10:52:40;2.95;;;0.93;;
3081;SDS011;1551;51.046;7.010;2023-04-03T10:55:38;2.50;;;1.10;;
3081;SDS011;1551;51.046;7.010;2023-04-03T10:58:40;2.97;;;1.27;;
3081;SDS011;1551;51.046;7.010;2023-04-03T11:01:33;2.00;;;0.73;;
3081;SDS011;1551;51.046;7.010;2023-04-03T11:04:26;2.65;;;0.90;;
3081;SDS011;1551;51.046;7.010;2023-04-03T11:10:53;2.78;;;1.00;;
3081;SDS011;1551;51.046;7.010;2023-04-03T11:13:43;2.70;;;1.10;;
3081;SDS011;1551;51.046;7.010;2023-04-03T11:16:40;2.30;;;1.02;;
3081;SDS011;1551;51.046;7.010;2023-04-03T11:19:41;4.20;;;1.08;;
3081;SDS011;1551;51.046;7.010;2023-04-03T11:22:50;2.55;;;1.17;;
3081;SDS011;1551;51.046;7.010;2023-04-03T11:25:49;2.60;;;1.33;;
3081;SDS011;1551;51.046;7.010;2023-04-03T11:28:41;3.22;;;1.30;;
3081;SDS011;1551;51.046;7.010;2023-04-03T11:34:35;3.15;;;1.15;;
3081;SDS011;1551;51.046;7.010;2023-04-03T11:37:38;2.30;;;1.00;;
3081;SDS011;1551;51.046;7.010;2023-04-03T11:40:31;3.10;;;0.98;;
3081;SDS011;1551;51.046;7.010;2023-04-03T11:43:24;2.40;;;1.00;;
3081;SDS011;1551;51.046;7.010;2023-04-03T11:46:15;2.10;;;0.90;;
3081;SDS011;1551;51.046;7.010;2023-04-03T11:49:11;2.80;;;1.00;;
3081;SDS011;1551;51.046;7.010;2023-04-03T11:58:23;1.90;;;0.97;;
3081;SDS011;1551;51.046;7.010;2023-04-03T12:02:14;1.90;;;1.00;;
3081;SDS011;1551;51.046;7.010;2023-04-03T12:04:40;2.40;;;1.00;;
3081;SDS011;1551;51.046;7.010;2023-04-03T12:08:24;2.15;;;0.77;;
3081;SDS011;1551;51.046;7.010;2023-04-03T12:11:23;2.25;;;0.90;;
3081;SDS011;1551;51.046;7.010;2023-04-03T12:14:17;1.70;;;0.70;;
3081;SDS011;1551;51.046;7.010;2023-04-03T12:17:12;2.08;;;0.90;;
3081;SDS011;1551;51.046;7.010;2023-04-03T12:20:45;2.05;;;1.00;;
3081;SDS011;1551;51.046;7.010;2023-04-03T12:30:11;2.80;;;0.90;;
3081;SDS011;1551;51.046;7.010;2023-04-03T12:36:07;2.70;;;1.08;;
3081;SDS011;1551;51.046;7.010;2023-04-03T12:39:16;3.10;;;1.10;;
3081;SDS011;1551;51.046;7.010;2023-04-03T12:42:29;2.97;;;1.60;;
3081;SDS011;1551;51.046;7.010;2023-04-03T12:45:29;3.00;;;0.90;;
3081;SDS011;1551;51.046;7.010;2023-04-03T12:48:30;2.10;;;0.90;;
3081;SDS011;1551;51.046;7.010;2023-04-03T12:51:21;3.67;;;1.05;;
3081;SDS011;1551;51.046;7.010;2023-04-03T12:57:09;2.00;;;0.95;;
3081;SDS011;1551;51.046;7.010;2023-04-03T13:03:28;3.30;;;1.10;;
3081;SDS011;1551;51.046;7.010;2023-04-03T13:06:22;2.40;;;1.20;;
3081;SDS011;1551;51.046;7.010;2023-04-03T13:09:19;2.90;;;1.00;;
3081;SDS011;1551;51.046;7.010;2023-04-03T13:12:15;2.60;;;1.02;;
3081;SDS011;1551;51.046;7.010;2023-04-03T13:15:12;2.13;;;1.10;;
3081;SDS011;1551;51.046;7.010;2023-04-03T13:18:20;2.10;;;1.10;;
3081;SDS011;1551;51.046;7.010;2023-04-03T13:21:13;2.47;;;1.20;;
3081;SDS011;1551;51.046;7.010;2023-04-03T13:24:04;3.20;;;1.08;;
3081;SDS011;1551;51.046;7.010;2023-04-03T13:26:54;2.60;;;1.10;;
3081;SDS011;1551;51.046;7.010;2023-04-03T13:29:43;2.60;;;1.10;;
3081;SDS011;1551;51.046;7.010;2023-04-03T13:32:40;2.40;;;1.30;;
3081;SDS011;1551;51.046;7.010;2023-04-03T13:35:39;3.13;;;1.25;;
3081;SDS011;1551;51.046;7.010;2023-04-03T13:38:29;2.35;;;1.10;;
3081;SDS011;1551;51.046;7.010;2023-04-03T13:41:24;2.67;;;1.27;;
3081;SDS011;1551;51.046;7.010;2023-04-03T13:47:36;2.30;;;1.10;;
3081;SDS011;1551;51.046;7.010;2023-04-03T13:50:27;3.00;;;1.40;;
3081;SDS011;1551;51.046;7.010;2023-04-03T13:53:17;2.00;;;1.13;;
3081;SDS011;1551;51.046;7.010;2023-04-03T13:56:08;2.70;;;1.10;;
3081;SDS011;1551;51.046;7.010;2023-04-03T14:04:56;2.90;;;1.30;;
3081;SDS011;1551;51.046;7.010;2023-04-03T14:07:48;3.00;;;1.20;;
3081;SDS011;1551;51.046;7.010;2023-04-03T14:10:37;2.60;;;1.10;;
3081;SDS011;1551;51.046;7.010;2023-04-03T14:13:29;3.42;;;1.40;;
3081;SDS011;1551;51.046;7.010;2023-04-03T14:16:23;2.53;;;1.27;;
3081;SDS011;1551;51.046;7.010;2023-04-03T14:19:24;2.40;;;1.40;;
3081;SDS011;1551;51.046;7.010;2023-04-03T14:22:19;3.10;;;1.38;;
3081;SDS011;1551;51.046;7.010;2023-04-03T14:25:14;2.22;;;1.10;;
3081;SDS011;1551;51.046;7.010;2023-04-03T14:28:12;2.50;;;1.20;;
3081;SDS011;1551;51.046;7.010;2023-04-03T14:31:07;2.90;;;1.30;;
3081;SDS011;1551;51.046;7.010;2023-04-03T14:33:56;3.00;;;1.40;;
3081;SDS011;1551;51.046;7.010;2023-04-03T14:36:45;5.70;;;1.40;;
3081;SDS011;1551;51.046;7.010;2023-04-03T14:39:35;2.53;;;1.25;;
3081;SDS011;1551;51.046;7.010;2023-04-03T14:42:29;4.00;;;1.40;;
3081;SDS011;1551;51.046;7.010;2023-04-03T14:45:21;2.83;;;1.45;;
3081;SDS011;1551;51.046;7.010;2023-04-03T14:48:21;2.67;;;1.20;;
3081;SDS011;1551;51.046;7.010;2023-04-03T14:51:12;3.88;;;1.30;;
3081;SDS011;1551;51.046;7.010;2023-04-03T14:54:02;2.40;;;1.20;;
3081;SDS011;1551;51.046;7.010;2023-04-03T14:56:55;4.00;;;1.60;;
3081;SDS011;1551;51.046;7.010;2023-04-03T14:59:46;4.40;;;1.70;;
3081;SDS011;1551;51.046;7.010;2023-04-03T15:02:36;3.47;;;1.42;;
3081;SDS011;1551;51.046;7.010;2023-04-03T15:05:27;2.60;;;1.38;;
3081;SDS011;1551;51.046;7.010;2023-04-03T15:11:18;2.90;;;1.10;;
3081;SDS011;1551;51.046;7.010;2023-04-03T15:14:08;2.80;;;1.30;;
3081;SDS011;1551;51.046;7.010;2023-04-03T15:16:58;3.47;;;1.40;;
3081;SDS011;1551;51.046;7.010;2023-04-03T15:19:47;2.65;;;1.48;;
3081;SDS011;1551;51.046;7.010;2023-04-03T15:22:36;2.80;;;1.55;;
3081;SDS011;1551;51.046;7.010;2023-04-03T15:25:25;3.70;;;1.60;;
3081;SDS011;1551;51.046;7.010;2023-04-03T15:28:18;4.30;;;1.70;;
3081;SDS011;1551;51.046;7.010;2023-04-03T15:31:10;6.80;;;2.00;;
3081;SDS011;1551;51.046;7.010;2023-04-03T15:33:59;2.75;;;1.38;;
3081;SDS011;1551;51.046;7.010;2023-04-03T15:36:48;2.80;;;1.20;;
3081;SDS011;1551;51.046;7.010;2023-04-03T15:39:38;3.47;;;1.52;;
3081;SDS011;1551;51.046;7.010;2023-04-03T15:42:27;2.90;;;1.60;;
3081;SDS011;1551;51.046;7.010;2023-04-03T15:45:16;4.40;;;1.63;;
3081;SDS011;1551;51.046;7.010;2023-04-03T15:48:05;3.85;;;1.58;;
3081;SDS011;1551;51.046;7.010;2023-04-03T15:50:55;4.13;;;1.40;;
3081;SDS011;1551;51.046;7.010;2023-04-03T15:53:45;2.97;;;1.35;;
3081;SDS011;1551;51.046;7.010;2023-04-03T15:56:34;3.60;;;2.10;;
3081;SDS011;1551;51.046;7.010;2023-04-03T15:59:23;3.83;;;1.60;;
3081;SDS011;1551;51.046;7.010;2023-04-03T16:02:12;3.22;;;1.30;;
3081;SDS011;1551;51.046;7.010;2023-04-03T16:05:01;4.03;;;1.35;;
3081;SDS011;1551;51.046;7.010;2023-04-03T16:07:51;4.88;;;1.50;;
3081;SDS011;1551;51.046;7.010;2023-04-03T16:10:40;3.72;;;1.40;;
3081;SDS011;1551;51.046;7.010;2023-04-03T16:13:29;4.70;;;1.30;;
3081;SDS011;1551;51.046;7.010;2023-04-03T16:16:19;2.60;;;1.20;;
3081;SDS011;1551;51.046;7.010;2023-04-03T16:19:08;3.40;;;1.30;;
3081;SDS011;1551;51.046;7.010;2023-04-03T16:21:58;4.78;;;1.58;;
3081;SDS011;1551;51.046;7.010;2023-04-03T16:24:47;3.30;;;1.38;;
3081;SDS011;1551;51.046;7.010;2023-04-03T16:27:36;4.20;;;1.45;;
3081;SDS011;1551;51.046;7.010;2023-04-03T16:30:26;2.53;;;1.30;;
3081;SDS011;1551;51.046;7.010;2023-04-03T16:33:15;2.40;;;1.40;;
3081;SDS011;1551;51.046;7.010;2023-04-03T16:36:04;3.25;;;1.40;;
3081;SDS011;1551;51.046;7.010;2023-04-03T16:38:53;3.42;;;1.10;;
3081;SDS011;1551;51.046;7.010;2023-04-03T16:41:42;3.00;;;1.40;;
3081;SDS011;1551;51.046;7.010;2023-04-03T16:44:31;3.88;;;1.83;;
3081;SDS011;1551;51.046;7.010;2023-04-03T16:47:20;4.00;;;1.40;;
3081;SDS011;1551;51.046;7.010;2023-04-03T16:50:09;3.70;;;1.50;;
3081;SDS011;1551;51.046;7.010;2023-04-03T16:52:59;3.10;;;1.20;;
3081;SDS011;1551;51.046;7.010;2023-04-03T16:55:49;5.35;;;1.60;;
3081;SDS011;1551;51.046;7.010;2023-04-03T16:58:39;2.70;;;1.30;;
3081;SDS011;1551;51.046;7.010;2023-04-03T17:01:28;3.60;;;1.40;;
3081;SDS011;1551;51.046;7.010;2023-04-03T17:04:17;4.18;;;1.23;;
3081;SDS011;1551;51.046;7.010;2023-04-03T17:07:06;4.65;;;1.48;;
3081;SDS011;1551;51.046;7.010;2023-04-03T17:09:55;7.72;;;5.00;;
3081;SDS011;1551;51.046;7.010;2023-04-03T17:12:44;2.90;;;1.13;;
3081;SDS011;1551;51.046;7.010;2023-04-03T17:15:33;3.30;;;1.30;;
3081;SDS011;1551;51.046;7.010;2023-04-03T17:18:22;2.67;;;1.33;;
3081;SDS011;1551;51.046;7.010;2023-04-03T17:21:11;2.85;;;1.50;;
3081;SDS011;1551;51.046;7.010;2023-04-03T17:24:03;2.25;;;1.25;;
3081;SDS011;1551;51.046;7.010;2023-04-03T17:26:56;3.35;;;1.50;;
3081;SDS011;1551;51.046;7.010;2023-04-03T17:29:45;4.43;;;1.15;;
3081;SDS011;1551;51.046;7.010;2023-04-03T17:32:34;3.88;;;1.50;;
3081;SDS011;1551;51.046;7.010;2023-04-03T17:35:24;4.22;;;1.70;;
3081;SDS011;1551;51.046;7.010;2023-04-03T17:38:13;3.80;;;1.38;;
3081;SDS011;1551;51.046;7.010;2023-04-03T17:41:03;2.80;;;1.38;;
3081;SDS011;1551;51.046;7.010;2023-04-03T17:43:55;3.00;;;1.30;;
3081;SDS011;1551;51.046;7.010;2023-04-03T17:46:45;3.00;;;1.30;;
3081;SDS011;1551;51.046;7.010;2023-04-03T17:49:34;2.83;;;1.53;;
3081;SDS011;1551;51.046;7.010;2023-04-03T17:52:22;4.47;;;2.05;;
3081;SDS011;1551;51.046;7.010;2023-04-03T17:55:14;7.82;;;2.30;;
3081;SDS011;1551;51.046;7.010;2023-04-03T17:58:05;4.28;;;1.60;;
3081;SDS011;1551;51.046;7.010;2023-04-03T18:00:54;2.83;;;1.70;;
3081;SDS011;1551;51.046;7.010;2023-04-03T18:03:44;3.47;;;1.50;;
3081;SDS011;1551;51.046;7.010;2023-04-03T18:09:47;3.55;;;2.05;;
3081;SDS011;1551;51.046;7.010;2023-04-03T18:12:38;3.50;;;1.53;;
3081;SDS011;1551;51.046;7.010;2023-04-03T18:15:28;2.90;;;1.30;;
3081;SDS011;1551;51.046;7.010;2023-04-03T18:18:18;6.60;;;3.47;;
3081;SDS011;1551;51.046;7.010;2023-04-03T18:21:08;3.90;;;1.52;;
3081;SDS011;1551;51.046;7.010;2023-04-03T18:23:59;3.13;;;1.50;;
3081;SDS011;1551;51.046;7.010;2023-04-03T18:26:50;5.30;;;1.67;;
3081;SDS011;1551;51.046;7.010;2023-04-03T18:29:45;3.10;;;1.70;;
3081;SDS011;1551;51.046;7.010;2023-04-03T18:32:38;4.30;;;1.60;;
3081;SDS011;1551;51.046;7.010;2023-04-03T18:35:26;2.88;;;1.60;;
3081;SDS011;1551;51.046;7.010;2023-04-03T18:38:16;3.70;;;1.50;;
3081;SDS011;1551;51.046;7.010;2023-04-03T18:41:05;4.90;;;2.40;;
3081;SDS011;1551;51.046;7.010;2023-04-03T18:43:56;4.65;;;1.98;;
3081;SDS011;1551;51.046;7.010;2023-04-03T18:46:50;3.95;;;1.67;;
3081;SDS011;1551;51.046;7.010;2023-04-03T18:49:41;4.83;;;2.00;;
3081;SDS011;1551;51.046;7.010;2023-04-03T18:52:31;3.40;;;1.70;;
3081;SDS011;1551;51.046;7.010;2023-04-03T18:55:20;3.07;;;1.63;;
3081;SDS011;1551;51.046;7.010;2023-04-03T18:58:08;3.95;;;1.70;;
3081;SDS011;1551;51.046;7.010;2023-04-03T19:00:58;5.90;;;2.60;;
3081;SDS011;1551;51.046;7.010;2023-04-03T19:03:48;3.33;;;1.73;;
3081;SDS011;1551;51.046;7.010;2023-04-03T19:06:37;6.45;;;2.38;;
3081;SDS011;1551;51.046;7.010;2023-04-03T19:09:27;3.55;;;1.98;;